sensor_id;sensor_type;location;lat;lon;timestamp;pressure;altitude;pressure_sealevel;temperature;humidity
41078;BME280;26823;42.662;23.352;2022-07-06T00:02:23;94724.78;;;19.53;96.13
41078;BME280;26823;42.662;23.352;2022-07-06T00:04:49;94733.56;;;19.46;97.44
41078;BME280;26823;42.662;23.352;2022-07-06T00:07:14;94732.44;;;19.47;99.60
41078;BME280;26823;42.662;23.352;2022-07-06T00:09:42;94721.81;;;19.46;98.99
41078;BME280;26823;42.662;23.352;2022-07-06T00:12:09;94738.16;;;19.54;97.45
41078;BME280;26823;42.662;23.352;2022-07-06T00:14:34;94737.31;;;19.42;96.90
41078;BME280;26823;42.662;23.352;2022-07-06T00:17:00;94746.28;;;19.51;98.25
41078;BME280;26823;42.662;23.352;2022-07-06T00:19:25;94723.44;;;19.26;100.00
41078;BME280;26823;42.662;23.352;2022-07-06T00:21:51;94733.00;;;19.19;100.00
41078;BME280;26823;42.662;23.352;2022-07-06T00:24:16;94737.84;;;19.35;100.00
41078;BME280;26823;42.662;23.352;2022-07-06T00:26:44;94731.41;;;19.52;99.93
41078;BME280;26823;42.662;23.352;2022-07-06T00:29:09;94769.69;;;19.82;99.00
41078;BME280;26823;42.662;23.352;2022-07-06T00:31:34;94772.50;;;19.94;98.41
41078;BME280;26823;42.662;23.352;2022-07-06T00:34:00;94777.28;;;19.97;97.75
41078;BME280;26823;42.662;23.352;2022-07-06T00:36:25;94781.66;;;19.98;99.15
41078;BME280;26823;42.662;23.352;2022-07-06T00:38:51;94778.03;;;20.07;98.62
41078;BME280;26823;42.662;23.352;2022-07-06T00:41:16;94749.50;;;19.86;98.70
41078;BME280;26823;42.662;23.352;2022-07-06T00:43:50;94783.72;;;20.01;99.03
41078;BME280;26823;42.662;23.352;2022-07-06T00:46:16;94778.44;;;19.96;98.52
41078;BME280;26823;42.662;23.352;2022-07-06T00:48:41;94780.63;;;20.03;98.44
41078;BME280;26823;42.662;23.352;2022-07-06T00:51:07;94776.19;;;20.11;97.64
41078;BME280;26823;42.662;23.352;2022-07-06T00:53:32;94779.59;;;20.08;97.64
41078;BME280;26823;42.662;23.352;2022-07-06T00:55:58;94775.16;;;20.03;97.66
41078;BME280;26823;42.662;23.352;2022-07-06T00:58:24;94764.50;;;20.01;97.59
41078;BME280;26823;42.662;23.352;2022-07-06T01:00:50;94748.00;;;19.89;98.05
41078;BME280;26823;42.662;23.352;2022-07-06T01:03:15;94749.56;;;19.78;99.81
41078;BME280;26823;42.662;23.352;2022-07-06T01:05:41;94739.66;;;19.85;98.96
41078;BME280;26823;42.662;23.352;2022-07-06T01:08:06;94738.03;;;19.84;99.22
41078;BME280;26823;42.662;23.352;2022-07-06T01:10:32;94728.34;;;19.87;99.49
41078;BME280;26823;42.662;23.352;2022-07-06T01:12:57;94728.34;;;19.99;98.33
41078;BME280;26823;42.662;23.352;2022-07-06T01:15:24;94725.53;;;19.75;100.00
41078;BME280;26823;42.662;23.352;2022-07-06T01:17:50;94729.66;;;19.81;100.00
41078;BME280;26823;42.662;23.352;2022-07-06T01:20:26;94738.56;;;19.78;100.00
41078;BME280;26823;42.662;23.352;2022-07-06T01:22:53;94743.88;;;19.83;100.00
41078;BME280;26823;42.662;23.352;2022-07-06T01:25:20;94731.19;;;19.91;99.84
41078;BME280;26823;42.662;23.352;2022-07-06T01:27:46;94729.44;;;19.74;100.00
41078;BME280;26823;42.662;23.352;2022-07-06T01:30:14;94702.84;;;19.53;100.00
41078;BME280;26823;42.662;23.352;2022-07-06T01:32:41;94697.59;;;19.60;100.00
41078;BME280;26823;42.662;23.352;2022-07-06T01:35:08;94722.00;;;19.74;99.66
41078;BME280;26823;42.662;23.352;2022-07-06T01:37:34;94728.03;;;19.80;99.65
41078;BME280;26823;42.662;23.352;2022-07-06T01:40:01;94731.97;;;19.79;99.83
41078;BME280;26823;42.662;23.352;2022-07-06T01:42:27;94722.47;;;19.76;100.00
41078;BME280;26823;42.662;23.352;2022-07-06T01:44:53;94729.47;;;19.86;100.00
41078;BME280;26823;42.662;23.352;2022-07-06T01:47:19;94728.81;;;19.89;99.98
41078;BME280;26823;42.662;23.352;2022-07-06T01:49:44;94726.41;;;19.87;99.61
41078;BME280;26823;42.662;23.352;2022-07-06T01:52:10;94717.06;;;19.80;99.40
41078;BME280;26823;42.662;23.352;2022-07-06T01:54:35;94728.53;;;19.82;99.23
41078;BME280;26823;42.662;23.352;2022-07-06T01:57:01;94735.66;;;19.83;99.05
41078;BME280;26823;42.662;23.352;2022-07-06T01:59:26;94740.72;;;19.72;100.00
41078;BME280;26823;42.662;23.352;2022-07-06T02:01:51;94739.16;;;19.71;100.00
41078;BME280;26823;42.662;23.352;2022-07-06T02:04:17;94742.28;;;19.61;100.00
41078;BME280;26823;42.662;23.352;2022-07-06T02:06:42;94747.28;;;19.46;100.00
41078;BME280;26823;42.662;23.352;2022-07-06T02:09:08;94736.47;;;19.29;100.00
41078;BME280;26823;42.662;23.352;2022-07-06T02:11:33;94748.63;;;19.19;100.00
41078;BME280;26823;42.662;23.352;2022-07-06T02:13:59;94733.59;;;19.25;100.00
41078;BME280;26823;42.662;23.352;2022-07-06T02:16:24;94742.41;;;19.31;100.00
41078;BME280;26823;42.662;23.352;2022-07-06T02:18:49;94730.63;;;19.30;100.00
41078;BME280;26823;42.662;23.352;2022-07-06T02:21:15;94744.41;;;19.43;98.02
41078;BME280;26823;42.662;23.352;2022-07-06T02:23:40;94735.69;;;19.40;97.35
41078;BME280;26823;42.662;23.352;2022-07-06T02:26:06;94740.41;;;19.40;97.15
41078;BME280;26823;42.662;23.352;2022-07-06T02:28:31;94743.22;;;19.31;97.39
41078;BME280;26823;42.662;23.352;2022-07-06T02:30:57;94737.84;;;19.35;96.46
41078;BME280;26823;42.662;23.352;2022-07-06T02:33:22;94736.00;;;19.05;98.05
41078;BME280;26823;42.662;23.352;2022-07-06T02:35:48;94731.41;;;18.88;100.00
41078;BME280;26823;42.662;23.352;2022-07-06T02:38:13;94740.09;;;18.99;99.38
41078;BME280;26823;42.662;23.352;2022-07-06T02:40:39;94740.16;;;19.12;98.94
41078;BME280;26823;42.662;23.352;2022-07-06T02:43:04;94741.56;;;19.18;97.88
41078;BME280;26823;42.662;23.352;2022-07-06T02:45:30;94741.75;;;19.13;97.67
41078;BME280;26823;42.662;23.352;2022-07-06T02:47:56;94736.09;;;18.97;99.73
41078;BME280;26823;42.662;23.352;2022-07-06T02:50:23;94738.41;;;19.07;98.60
41078;BME280;26823;42.662;23.352;2022-07-06T02:52:48;94738.13;;;19.00;98.28
41078;BME280;26823;42.662;23.352;2022-07-06T02:55:14;94742.81;;;18.99;98.77
41078;BME280;26823;42.662;23.352;2022-07-06T02:57:39;94706.78;;;18.67;98.59
41078;BME280;26823;42.662;23.352;2022-07-06T03:00:05;94733.03;;;18.89;98.97
41078;BME280;26823;42.662;23.352;2022-07-06T03:02:31;94719.84;;;18.62;100.00
41078;BME280;26823;42.662;23.352;2022-07-06T03:04:57;94734.47;;;18.66;100.00
41078;BME280;26823;42.662;23.352;2022-07-06T03:07:23;94727.56;;;18.89;100.00
41078;BME280;26823;42.662;23.352;2022-07-06T03:09:49;94728.00;;;18.70;100.00
41078;BME280;26823;42.662;23.352;2022-07-06T03:12:14;94737.91;;;18.84;100.00
41078;BME280;26823;42.662;23.352;2022-07-06T03:14:41;94741.38;;;18.72;100.00
41078;BME280;26823;42.662;23.352;2022-07-06T03:17:07;94746.91;;;18.63;100.00
41078;BME280;26823;42.662;23.352;2022-07-06T03:19:32;94728.53;;;18.64;100.00
41078;BME280;26823;42.662;23.352;2022-07-06T03:21:58;94694.25;;;18.57;100.00
41078;BME280;26823;42.662;23.352;2022-07-06T03:24:24;94746.53;;;18.73;100.00
41078;BME280;26823;42.662;23.352;2022-07-06T03:26:49;94756.88;;;18.68;100.00
41078;BME280;26823;42.662;23.352;2022-07-06T03:29:15;94756.63;;;18.52;100.00
41078;BME280;26823;42.662;23.352;2022-07-06T03:31:40;94760.88;;;18.70;100.00
41078;BME280;26823;42.662;23.352;2022-07-06T03:34:05;94766.44;;;18.83;100.00
41078;BME280;26823;42.662;23.352;2022-07-06T03:36:31;94765.41;;;18.66;100.00
41078;BME280;26823;42.662;23.352;2022-07-06T03:38:57;94765.38;;;18.75;100.00
41078;BME280;26823;42.662;23.352;2022-07-06T03:41:22;94764.19;;;18.85;100.00
41078;BME280;26823;42.662;23.352;2022-07-06T03:43:48;94757.59;;;18.77;100.00
41078;BME280;26823;42.662;23.352;2022-07-06T03:46:13;94765.50;;;18.79;100.00
41078;BME280;26823;42.662;23.352;2022-07-06T03:48:38;94767.91;;;18.80;100.00
41078;BME280;26823;42.662;23.352;2022-07-06T03:51:04;94773.41;;;18.80;100.00
41078;BME280;26823;42.662;23.352;2022-07-06T03:53:30;94763.84;;;18.56;100.00
41078;BME280;26823;42.662;23.352;2022-07-06T03:55:56;94770.38;;;18.73;100.00
41078;BME280;26823;42.662;23.352;2022-07-06T03:58:40;94769.09;;;18.70;100.00
41078;BME280;26823;42.662;23.352;2022-07-06T04:01:05;94769.03;;;18.79;100.00
41078;BME280;26823;42.662;23.352;2022-07-06T04:03:30;94772.41;;;18.85;100.00
41078;BME280;26823;42.662;23.352;2022-07-06T04:05:56;94767.69;;;18.94;100.00
41078;BME280;26823;42.662;23.352;2022-07-06T04:08:21;94762.50;;;19.01;100.00
41078;BME280;26823;42.662;23.352;2022-07-06T04:10:47;94776.44;;;19.30;98.22
41078;BME280;26823;42.662;23.352;2022-07-06T04:13:12;94753.59;;;19.59;95.64
41078;BME280;26823;42.662;23.352;2022-07-06T04:15:38;94779.28;;;20.21;91.39
41078;BME280;26823;42.662;23.352;2022-07-06T04:18:04;94773.13;;;20.37;89.76
41078;BME280;26823;42.662;23.352;2022-07-06T04:20:30;94790.66;;;20.57;88.76
41078;BME280;26823;42.662;23.352;2022-07-06T04:22:55;94763.28;;;20.61;87.88
41078;BME280;26823;42.662;23.352;2022-07-06T04:25:21;94776.25;;;20.73;86.74
41078;BME280;26823;42.662;23.352;2022-07-06T04:27:46;94778.06;;;20.56;86.82
41078;BME280;26823;42.662;23.352;2022-07-06T04:30:12;94782.16;;;20.37;88.28
41078;BME280;26823;42.662;23.352;2022-07-06T04:32:37;94787.66;;;20.37;88.67
41078;BME280;26823;42.662;23.352;2022-07-06T04:35:04;94785.50;;;20.31;88.96
41078;BME280;26823;42.662;23.352;2022-07-06T04:37:30;94791.66;;;20.28;88.89
41078;BME280;26823;42.662;23.352;2022-07-06T04:39:55;94804.50;;;20.36;88.08
41078;BME280;26823;42.662;23.352;2022-07-06T04:42:21;94801.63;;;20.45;87.97
41078;BME280;26823;42.662;23.352;2022-07-06T04:44:46;94800.28;;;20.51;87.26
41078;BME280;26823;42.662;23.352;2022-07-06T04:47:13;94809.31;;;20.89;83.35
41078;BME280;26823;42.662;23.352;2022-07-06T04:49:39;94826.06;;;21.61;79.19
41078;BME280;26823;42.662;23.352;2022-07-06T04:52:05;94825.44;;;21.80;77.64
41078;BME280;26823;42.662;23.352;2022-07-06T04:54:30;94828.13;;;21.93;76.33
41078;BME280;26823;42.662;23.352;2022-07-06T04:56:56;94834.47;;;21.81;75.87
41078;BME280;26823;42.662;23.352;2022-07-06T04:59:22;94839.78;;;21.74;75.59
41078;BME280;26823;42.662;23.352;2022-07-06T05:01:47;94836.31;;;21.36;77.93
41078;BME280;26823;42.662;23.352;2022-07-06T05:04:13;94851.53;;;21.46;77.04
41078;BME280;26823;42.662;23.352;2022-07-06T05:06:39;94846.72;;;21.43;76.52
41078;BME280;26823;42.662;23.352;2022-07-06T05:09:05;94850.13;;;21.64;75.60
41078;BME280;26823;42.662;23.352;2022-07-06T05:11:30;94845.69;;;21.60;76.24
41078;BME280;26823;42.662;23.352;2022-07-06T05:13:56;94848.53;;;21.63;75.53
41078;BME280;26823;42.662;23.352;2022-07-06T05:16:22;94851.97;;;21.48;75.92
41078;BME280;26823;42.662;23.352;2022-07-06T05:18:48;94856.09;;;21.66;75.32
41078;BME280;26823;42.662;23.352;2022-07-06T05:21:13;94860.63;;;21.75;74.74
41078;BME280;26823;42.662;23.352;2022-07-06T05:23:39;94846.50;;;21.35;75.60
41078;BME280;26823;42.662;23.352;2022-07-06T05:26:05;94864.34;;;21.54;75.27
41078;BME280;26823;42.662;23.352;2022-07-06T05:28:31;94856.09;;;21.54;74.97
41078;BME280;26823;42.662;23.352;2022-07-06T05:30:56;94862.63;;;21.49;74.91
41078;BME280;26823;42.662;23.352;2022-07-06T05:33:22;94870.81;;;21.46;75.59
41078;BME280;26823;42.662;23.352;2022-07-06T05:35:47;94822.94;;;21.22;75.55
41078;BME280;26823;42.662;23.352;2022-07-06T05:38:13;94855.91;;;21.34;74.92
41078;BME280;26823;42.662;23.352;2022-07-06T05:40:38;94856.94;;;21.42;75.58
41078;BME280;26823;42.662;23.352;2022-07-06T05:43:04;94852.44;;;21.62;74.10
41078;BME280;26823;42.662;23.352;2022-07-06T05:45:29;94872.75;;;21.58;74.99
41078;BME280;26823;42.662;23.352;2022-07-06T05:47:55;94874.78;;;21.61;74.73
41078;BME280;26823;42.662;23.352;2022-07-06T05:50:39;94876.63;;;21.97;73.33
41078;BME280;26823;42.662;23.352;2022-07-06T05:53:05;94875.00;;;21.96;73.21
41078;BME280;26823;42.662;23.352;2022-07-06T05:55:31;94874.53;;;21.66;73.05
41078;BME280;26823;42.662;23.352;2022-07-06T05:57:57;94880.38;;;21.77;73.80
41078;BME280;26823;42.662;23.352;2022-07-06T06:00:23;94883.91;;;21.77;72.28
41078;BME280;26823;42.662;23.352;2022-07-06T06:02:50;94866.97;;;21.75;72.48
41078;BME280;26823;42.662;23.352;2022-07-06T06:05:16;94870.09;;;21.49;73.81
41078;BME280;26823;42.662;23.352;2022-07-06T06:07:42;94861.84;;;21.37;74.57
41078;BME280;26823;42.662;23.352;2022-07-06T06:10:10;94867.59;;;21.44;74.12
41078;BME280;26823;42.662;23.352;2022-07-06T06:12:35;94874.00;;;21.35;74.94
41078;BME280;26823;42.662;23.352;2022-07-06T06:15:02;94867.16;;;21.17;75.61
41078;BME280;26823;42.662;23.352;2022-07-06T06:17:37;94872.88;;;21.24;75.19
41078;BME280;26823;42.662;23.352;2022-07-06T06:20:04;94871.28;;;21.23;76.28
41078;BME280;26823;42.662;23.352;2022-07-06T06:22:31;94865.22;;;21.17;76.88
41078;BME280;26823;42.662;23.352;2022-07-06T06:24:57;94868.84;;;21.22;77.14
41078;BME280;26823;42.662;23.352;2022-07-06T06:27:22;94852.84;;;21.11;77.00
41078;BME280;26823;42.662;23.352;2022-07-06T06:29:48;94868.44;;;21.07;78.96
41078;BME280;26823;42.662;23.352;2022-07-06T06:32:13;94863.84;;;21.11;79.60
41078;BME280;26823;42.662;23.352;2022-07-06T06:34:40;94879.06;;;21.21;78.12
41078;BME280;26823;42.662;23.352;2022-07-06T06:37:05;94872.44;;;21.34;75.36
41078;BME280;26823;42.662;23.352;2022-07-06T06:39:40;94868.13;;;21.49;74.00
41078;BME280;26823;42.662;23.352;2022-07-06T06:42:05;94860.50;;;21.30;75.00
41078;BME280;26823;42.662;23.352;2022-07-06T06:44:31;94855.81;;;21.06;76.84
41078;BME280;26823;42.662;23.352;2022-07-06T06:46:56;94859.34;;;21.19;76.77
41078;BME280;26823;42.662;23.352;2022-07-06T06:49:22;94861.78;;;21.21;76.97
41078;BME280;26823;42.662;23.352;2022-07-06T06:51:48;94850.31;;;21.18;76.47
41078;BME280;26823;42.662;23.352;2022-07-06T06:54:17;94868.47;;;21.48;74.09
41078;BME280;26823;42.662;23.352;2022-07-06T06:56:42;94853.81;;;21.44;73.48
41078;BME280;26823;42.662;23.352;2022-07-06T06:59:10;94863.22;;;21.67;73.19
41078;BME280;26823;42.662;23.352;2022-07-06T07:01:36;94865.38;;;21.62;73.19
41078;BME280;26823;42.662;23.352;2022-07-06T07:04:01;94843.38;;;21.62;73.48
41078;BME280;26823;42.662;23.352;2022-07-06T07:06:27;94838.38;;;21.80;72.92
41078;BME280;26823;42.662;23.352;2022-07-06T07:08:56;94856.19;;;21.98;71.59
41078;BME280;26823;42.662;23.352;2022-07-06T07:11:21;94820.59;;;21.77;71.49
41078;BME280;26823;42.662;23.352;2022-07-06T07:13:47;94851.03;;;22.25;70.54
41078;BME280;26823;42.662;23.352;2022-07-06T07:16:12;94850.06;;;22.34;70.55
41078;BME280;26823;42.662;23.352;2022-07-06T07:18:38;94862.91;;;22.58;68.27
41078;BME280;26823;42.662;23.352;2022-07-06T07:21:03;94860.69;;;22.63;69.21
41078;BME280;26823;42.662;23.352;2022-07-06T07:23:29;94845.00;;;22.36;68.56
41078;BME280;26823;42.662;23.352;2022-07-06T07:25:55;94868.16;;;22.47;67.77
41078;BME280;26823;42.662;23.352;2022-07-06T07:28:21;94867.16;;;22.39;68.36
41078;BME280;26823;42.662;23.352;2022-07-06T07:30:46;94862.47;;;22.40;68.32
41078;BME280;26823;42.662;23.352;2022-07-06T07:33:11;94859.44;;;22.45;67.47
41078;BME280;26823;42.662;23.352;2022-07-06T07:35:37;94864.13;;;22.44;67.84
41078;BME280;26823;42.662;23.352;2022-07-06T07:38:02;94861.47;;;22.48;67.13
41078;BME280;26823;42.662;23.352;2022-07-06T07:40:28;94844.06;;;22.44;66.91
41078;BME280;26823;42.662;23.352;2022-07-06T07:42:56;94862.03;;;22.54;67.23
41078;BME280;26823;42.662;23.352;2022-07-06T07:45:22;94853.50;;;22.59;66.72
41078;BME280;26823;42.662;23.352;2022-07-06T07:47:47;94837.75;;;22.59;65.76
41078;BME280;26823;42.662;23.352;2022-07-06T07:50:13;94848.34;;;22.73;66.25
41078;BME280;26823;42.662;23.352;2022-07-06T07:52:53;94805.84;;;22.42;67.35
41078;BME280;26823;42.662;23.352;2022-07-06T07:55:19;94819.47;;;22.51;66.87
41078;BME280;26823;42.662;23.352;2022-07-06T07:57:44;94842.75;;;22.86;67.11
41078;BME280;26823;42.662;23.352;2022-07-06T08:00:10;94855.53;;;22.94;67.92
41078;BME280;26823;42.662;23.352;2022-07-06T08:02:36;94855.53;;;23.10;64.51
41078;BME280;26823;42.662;23.352;2022-07-06T08:05:02;94850.63;;;23.19;66.40
41078;BME280;26823;42.662;23.352;2022-07-06T08:07:27;94842.69;;;23.34;64.40
41078;BME280;26823;42.662;23.352;2022-07-06T08:09:53;94841.41;;;23.47;65.94
41078;BME280;26823;42.662;23.352;2022-07-06T08:12:18;94838.00;;;23.54;63.03
41078;BME280;26823;42.662;23.352;2022-07-06T08:14:43;94821.78;;;23.52;63.40
41078;BME280;26823;42.662;23.352;2022-07-06T08:17:09;94860.47;;;23.72;63.28
41078;BME280;26823;42.662;23.352;2022-07-06T08:19:34;94843.91;;;23.72;62.58
41078;BME280;26823;42.662;23.352;2022-07-06T08:22:00;94841.00;;;23.84;62.66
41078;BME280;26823;42.662;23.352;2022-07-06T08:24:25;94844.31;;;24.09;61.22
41078;BME280;26823;42.662;23.352;2022-07-06T08:26:51;94851.53;;;24.18;59.37
41078;BME280;26823;42.662;23.352;2022-07-06T08:29:16;94852.00;;;24.20;62.30
41078;BME280;26823;42.662;23.352;2022-07-06T08:31:42;94860.47;;;24.31;61.14
41078;BME280;26823;42.662;23.352;2022-07-06T08:34:07;94855.84;;;24.58;59.26
41078;BME280;26823;42.662;23.352;2022-07-06T08:36:33;94827.66;;;24.49;58.80
41078;BME280;26823;42.662;23.352;2022-07-06T08:38:58;94857.97;;;24.65;58.01
41078;BME280;26823;42.662;23.352;2022-07-06T08:41:25;94853.28;;;24.69;57.94
41078;BME280;26823;42.662;23.352;2022-07-06T08:43:52;94818.47;;;24.64;57.02
41078;BME280;26823;42.662;23.352;2022-07-06T08:46:18;94848.06;;;24.87;56.37
41078;BME280;26823;42.662;23.352;2022-07-06T08:48:45;94847.34;;;24.67;58.13
41078;BME280;26823;42.662;23.352;2022-07-06T08:51:13;94842.28;;;24.72;59.78
41078;BME280;26823;42.662;23.352;2022-07-06T08:53:40;94836.81;;;24.76;57.32
41078;BME280;26823;42.662;23.352;2022-07-06T08:56:06;94837.63;;;24.77;59.05
41078;BME280;26823;42.662;23.352;2022-07-06T08:58:32;94848.78;;;24.84;57.50
41078;BME280;26823;42.662;23.352;2022-07-06T09:00:58;94816.03;;;24.63;57.67
41078;BME280;26823;42.662;23.352;2022-07-06T09:03:25;94846.72;;;24.77;58.72
41078;BME280;26823;42.662;23.352;2022-07-06T09:05:52;94844.03;;;24.61;59.52
41078;BME280;26823;42.662;23.352;2022-07-06T09:08:18;94850.34;;;24.81;57.69
41078;BME280;26823;42.662;23.352;2022-07-06T09:10:44;94834.66;;;24.89;56.81
41078;BME280;26823;42.662;23.352;2022-07-06T09:13:09;94836.47;;;24.35;58.34
41078;BME280;26823;42.662;23.352;2022-07-06T09:15:36;94846.69;;;24.54;58.82
41078;BME280;26823;42.662;23.352;2022-07-06T09:18:05;94839.13;;;24.51;59.01
41078;BME280;26823;42.662;23.352;2022-07-06T09:20:31;94844.09;;;24.41;59.33
41078;BME280;26823;42.662;23.352;2022-07-06T09:23:02;94843.03;;;24.26;60.21
41078;BME280;26823;42.662;23.352;2022-07-06T09:25:29;94837.31;;;24.16;60.50
41078;BME280;26823;42.662;23.352;2022-07-06T09:27:57;94848.28;;;24.12;60.95
41078;BME280;26823;42.662;23.352;2022-07-06T09:30:23;94833.03;;;23.99;61.92
41078;BME280;26823;42.662;23.352;2022-07-06T09:32:51;94841.53;;;24.09;61.54
41078;BME280;26823;42.662;23.352;2022-07-06T09:35:25;94837.50;;;24.26;61.18
41078;BME280;26823;42.662;23.352;2022-07-06T09:38:14;94837.56;;;24.30;59.56
41078;BME280;26823;42.662;23.352;2022-07-06T09:40:44;94848.47;;;24.42;58.95
41078;BME280;26823;42.662;23.352;2022-07-06T09:45:42;94843.69;;;24.63;58.76
41078;BME280;26823;42.662;23.352;2022-07-06T09:48:15;94824.00;;;24.64;58.97
41078;BME280;26823;42.662;23.352;2022-07-06T09:50:51;94825.44;;;24.58;60.01
41078;BME280;26823;42.662;23.352;2022-07-06T09:53:18;94826.75;;;24.64;58.76
41078;BME280;26823;42.662;23.352;2022-07-06T09:55:46;94828.78;;;24.90;58.51
41078;BME280;26823;42.662;23.352;2022-07-06T09:58:13;94840.69;;;24.95;58.43
41078;BME280;26823;42.662;23.352;2022-07-06T10:00:40;94826.66;;;24.84;57.59
41078;BME280;26823;42.662;23.352;2022-07-06T10:03:05;94822.22;;;24.75;57.19
41078;BME280;26823;42.662;23.352;2022-07-06T10:05:32;94833.22;;;24.52;58.92
41078;BME280;26823;42.662;23.352;2022-07-06T10:08:00;94823.03;;;24.56;58.62
41078;BME280;26823;42.662;23.352;2022-07-06T10:10:27;94828.34;;;24.88;58.41
41078;BME280;26823;42.662;23.352;2022-07-06T10:12:55;94824.84;;;25.18;56.58
41078;BME280;26823;42.662;23.352;2022-07-06T10:15:23;94822.88;;;25.19;55.67
41078;BME280;26823;42.662;23.352;2022-07-06T10:17:50;94824.03;;;25.18;55.54
41078;BME280;26823;42.662;23.352;2022-07-06T10:20:17;94821.91;;;25.34;55.36
41078;BME280;26823;42.662;23.352;2022-07-06T10:22:43;94805.94;;;25.24;56.23
41078;BME280;26823;42.662;23.352;2022-07-06T10:25:09;94827.72;;;25.52;54.43
41078;BME280;26823;42.662;23.352;2022-07-06T10:27:36;94795.00;;;25.04;57.54
41078;BME280;26823;42.662;23.352;2022-07-06T10:30:02;94808.19;;;25.15;56.06
41078;BME280;26823;42.662;23.352;2022-07-06T10:32:28;94805.75;;;25.36;55.60
41078;BME280;26823;42.662;23.352;2022-07-06T10:34:53;94813.56;;;25.58;53.66
41078;BME280;26823;42.662;23.352;2022-07-06T10:37:27;94799.69;;;25.27;55.27
41078;BME280;26823;42.662;23.352;2022-07-06T10:39:53;94815.09;;;25.28;56.52
41078;BME280;26823;42.662;23.352;2022-07-06T10:45:19;94812.59;;;25.19;55.66
41078;BME280;26823;42.662;23.352;2022-07-06T10:47:46;94797.06;;;25.11;55.69
41078;BME280;26823;42.662;23.352;2022-07-06T10:50:12;94800.88;;;25.03;57.63
41078;BME280;26823;42.662;23.352;2022-07-06T10:52:51;94809.59;;;25.32;55.97
41078;BME280;26823;42.662;23.352;2022-07-06T10:55:38;94806.78;;;25.55;55.18
41078;BME280;26823;42.662;23.352;2022-07-06T10:58:05;94810.34;;;25.55;53.92
41078;BME280;26823;42.662;23.352;2022-07-06T11:00:54;94809.97;;;25.57;54.51
41078;BME280;26823;42.662;23.352;2022-07-06T11:03:48;94807.72;;;25.66;53.77
41078;BME280;26823;42.662;23.352;2022-07-06T11:06:18;94808.72;;;25.51;53.83
41078;BME280;26823;42.662;23.352;2022-07-06T11:17:01;94804.72;;;25.48;55.39
41078;BME280;26823;42.662;23.352;2022-07-06T11:19:26;94792.94;;;25.28;54.51
41078;BME280;26823;42.662;23.352;2022-07-06T11:21:57;94803.22;;;25.54;53.84
41078;BME280;26823;42.662;23.352;2022-07-06T11:24:29;94805.44;;;25.42;54.65
41078;BME280;26823;42.662;23.352;2022-07-06T11:26:56;94801.00;;;25.67;53.03
41078;BME280;26823;42.662;23.352;2022-07-06T11:29:23;94791.69;;;25.83;53.78
41078;BME280;26823;42.662;23.352;2022-07-06T11:31:52;94763.22;;;25.82;52.23
41078;BME280;26823;42.662;23.352;2022-07-06T11:34:23;94790.53;;;26.18;51.45
41078;BME280;26823;42.662;23.352;2022-07-06T11:36:54;94799.69;;;26.22;51.16
41078;BME280;26823;42.662;23.352;2022-07-06T11:39:20;94786.16;;;26.13;50.94
41078;BME280;26823;42.662;23.352;2022-07-06T11:41:45;94771.66;;;25.97;52.23
41078;BME280;26823;42.662;23.352;2022-07-06T11:44:11;94774.09;;;25.98;52.08
41078;BME280;26823;42.662;23.352;2022-07-06T11:46:36;94776.72;;;26.21;50.78
41078;BME280;26823;42.662;23.352;2022-07-06T11:49:07;94773.38;;;26.05;53.10
41078;BME280;26823;42.662;23.352;2022-07-06T11:51:35;94764.47;;;25.88;51.64
41078;BME280;26823;42.662;23.352;2022-07-06T11:54:09;94769.91;;;25.81;51.14
41078;BME280;26823;42.662;23.352;2022-07-06T11:56:35;94762.13;;;25.91;50.87
41078;BME280;26823;42.662;23.352;2022-07-06T11:59:02;94761.34;;;25.94;49.36
41078;BME280;26823;42.662;23.352;2022-07-06T12:01:29;94756.53;;;25.87;50.84
41078;BME280;26823;42.662;23.352;2022-07-06T12:04:01;94757.56;;;25.75;51.42
41078;BME280;26823;42.662;23.352;2022-07-06T12:06:29;94757.31;;;25.87;50.96
41078;BME280;26823;42.662;23.352;2022-07-06T12:08:58;94757.41;;;25.95;50.51
41078;BME280;26823;42.662;23.352;2022-07-06T12:11:26;94755.72;;;26.20;48.78
41078;BME280;26823;42.662;23.352;2022-07-06T12:13:53;94748.31;;;26.32;47.75
41078;BME280;26823;42.662;23.352;2022-07-06T12:16:19;94759.84;;;26.37;47.88
41078;BME280;26823;42.662;23.352;2022-07-06T12:18:47;94769.69;;;26.31;48.30
41078;BME280;26823;42.662;23.352;2022-07-06T12:21:16;94764.22;;;26.42;48.69
41078;BME280;26823;42.662;23.352;2022-07-06T12:23:47;94770.56;;;26.39;47.59
41078;BME280;26823;42.662;23.352;2022-07-06T12:26:15;94772.88;;;26.33;48.55
41078;BME280;26823;42.662;23.352;2022-07-06T12:28:42;94759.06;;;25.99;50.69
41078;BME280;26823;42.662;23.352;2022-07-06T12:31:08;94756.31;;;26.03;49.61
41078;BME280;26823;42.662;23.352;2022-07-06T12:33:33;94756.28;;;25.99;49.36
41078;BME280;26823;42.662;23.352;2022-07-06T12:36:13;94752.22;;;25.89;48.69
41078;BME280;26823;42.662;23.352;2022-07-06T12:38:48;94753.16;;;25.67;49.85
41078;BME280;26823;42.662;23.352;2022-07-06T12:41:28;94745.13;;;25.58;49.41
41078;BME280;26823;42.662;23.352;2022-07-06T12:44:05;94749.31;;;25.45;51.35
41078;BME280;26823;42.662;23.352;2022-07-06T12:49:00;94738.97;;;25.72;50.15
41078;BME280;26823;42.662;23.352;2022-07-06T12:51:26;94734.38;;;25.87;49.93
41078;BME280;26823;42.662;23.352;2022-07-06T12:53:56;94726.84;;;25.87;50.01
41078;BME280;26823;42.662;23.352;2022-07-06T12:56:36;94734.78;;;25.89;49.97
41078;BME280;26823;42.662;23.352;2022-07-06T12:59:01;94716.66;;;25.95;49.93
41078;BME280;26823;42.662;23.352;2022-07-06T13:01:27;94734.13;;;26.03;49.55
41078;BME280;26823;42.662;23.352;2022-07-06T13:03:57;94740.22;;;26.12;49.11